sensor_id;sensor_type;location;lat;lon;timestamp;P1;durP1;ratioP1;P2;durP2;ratioP2
3777;SDS011;1904;50.076;8.660;2022-07-03T00:00:14;3.27;;;2.30;;
3777;SDS011;1904;50.076;8.660;2022-07-03T00:02:40;3.80;;;2.37;;
3777;SDS011;1904;50.076;8.660;2022-07-03T00:05:06;4.73;;;2.80;;
3777;SDS011;1904;50.076;8.660;2022-07-03T00:07:44;2.20;;;2.00;;
3777;SDS011;1904;50.076;8.660;2022-07-03T00:10:10;2.33;;;2.17;;
3777;SDS011;1904;50.076;8.660;2022-07-03T00:12:44;6.50;;;2.30;;
3777;SDS011;1904;50.076;8.660;2022-07-03T00:15:14;2.53;;;2.13;;
3777;SDS011;1904;50.076;8.660;2022-07-03T00:17:40;3.47;;;2.23;;
3777;SDS011;1904;50.076;8.660;2022-07-03T00:20:08;2.60;;;2.17;;
3777;SDS011;1904;50.076;8.660;2022-07-03T00:22:36;4.20;;;2.17;;
3777;SDS011;1904;50.076;8.660;2022-07-03T00:25:14;3.47;;;2.27;;
3777;SDS011;1904;50.076;8.660;2022-07-03T00:27:44;6.47;;;2.80;;
3777;SDS011;1904;50.076;8.660;2022-07-03T00:30:14;3.40;;;2.43;;
3777;SDS011;1904;50.076;8.660;2022-07-03T00:32:41;2.93;;;2.30;;
3777;SDS011;1904;50.076;8.660;2022-07-03T00:35:08;4.18;;;2.92;;
3777;SDS011;1904;50.076;8.660;2022-07-03T00:37:38;3.13;;;2.57;;
3777;SDS011;1904;50.076;8.660;2022-07-03T00:40:14;2.93;;;2.70;;
3777;SDS011;1904;50.076;8.660;2022-07-03T00:42:44;2.40;;;2.20;;
3777;SDS011;1904;50.076;8.660;2022-07-03T00:54:14;2.50;;;2.30;;
3777;SDS011;1904;50.076;8.660;2022-07-03T01:00:08;3.60;;;2.43;;
3777;SDS011;1904;50.076;8.660;2022-07-03T01:10:53;2.87;;;2.50;;
3777;SDS011;1904;50.076;8.660;2022-07-03T01:17:05;6.30;;;2.63;;
3777;SDS011;1904;50.076;8.660;2022-07-03T01:29:18;4.67;;;2.70;;
3777;SDS011;1904;50.076;8.660;2022-07-03T01:31:48;4.20;;;2.73;;
3777;SDS011;1904;50.076;8.660;2022-07-03T01:34:20;3.90;;;2.83;;
3777;SDS011;1904;50.076;8.660;2022-07-03T01:36:49;2.93;;;2.73;;
3777;SDS011;1904;50.076;8.660;2022-07-03T01:39:19;4.60;;;3.43;;
3777;SDS011;1904;50.076;8.660;2022-07-03T01:41:51;2.93;;;2.63;;
3777;SDS011;1904;50.076;8.660;2022-07-03T01:44:21;5.03;;;2.87;;
3777;SDS011;1904;50.076;8.660;2022-07-03T01:59:10;8.37;;;3.07;;
3777;SDS011;1904;50.076;8.660;2022-07-03T02:12:22;5.27;;;3.10;;
3777;SDS011;1904;50.076;8.660;2022-07-03T02:15:03;3.70;;;3.30;;
3777;SDS011;1904;50.076;8.660;2022-07-03T02:17:42;4.83;;;3.20;;
3777;SDS011;1904;50.076;8.660;2022-07-03T02:20:10;4.70;;;3.13;;
3777;SDS011;1904;50.076;8.660;2022-07-03T02:25:33;9.27;;;3.07;;
3777;SDS011;1904;50.076;8.660;2022-07-03T02:28:14;3.13;;;2.87;;
3777;SDS011;1904;50.076;8.660;2022-07-03T02:51:21;3.47;;;3.17;;
3777;SDS011;1904;50.076;8.660;2022-07-03T03:00:48;3.70;;;3.40;;
3777;SDS011;1904;50.076;8.660;2022-07-03T03:03:25;5.20;;;3.80;;
3777;SDS011;1904;50.076;8.660;2022-07-03T03:06:00;8.10;;;3.80;;
3777;SDS011;1904;50.076;8.660;2022-07-03T03:11:41;4.20;;;3.80;;
3777;SDS011;1904;50.076;8.660;2022-07-03T03:14:15;8.43;;;4.57;;
3777;SDS011;1904;50.076;8.660;2022-07-03T03:20:02;6.63;;;4.00;;
3777;SDS011;1904;50.076;8.660;2022-07-03T03:25:38;4.27;;;3.70;;
3777;SDS011;1904;50.076;8.660;2022-07-03T03:28:14;9.87;;;3.73;;
3777;SDS011;1904;50.076;8.660;2022-07-03T03:33:56;4.03;;;3.73;;
3777;SDS011;1904;50.076;8.660;2022-07-03T03:40:03;5.17;;;3.93;;
3777;SDS011;1904;50.076;8.660;2022-07-03T03:48:50;4.30;;;3.90;;
3777;SDS011;1904;50.076;8.660;2022-07-03T03:51:32;6.37;;;4.57;;
3777;SDS011;1904;50.076;8.660;2022-07-03T03:54:02;4.40;;;3.47;;
3777;SDS011;1904;50.076;8.660;2022-07-03T03:59:50;5.27;;;3.90;;
3777;SDS011;1904;50.076;8.660;2022-07-03T04:05:38;4.33;;;3.93;;
3777;SDS011;1904;50.076;8.660;2022-07-03T04:11:26;4.47;;;4.07;;
3777;SDS011;1904;50.076;8.660;2022-07-03T04:13:56;5.10;;;4.20;;
3777;SDS011;1904;50.076;8.660;2022-07-03T04:16:33;5.00;;;4.07;;
3777;SDS011;1904;50.076;8.660;2022-07-03T04:22:02;6.97;;;3.57;;
3777;SDS011;1904;50.076;8.660;2022-07-03T04:24:34;4.37;;;3.70;;
3777;SDS011;1904;50.076;8.660;2022-07-03T04:35:50;5.57;;;3.67;;
3777;SDS011;1904;50.076;8.660;2022-07-03T04:38:16;4.00;;;3.70;;
3777;SDS011;1904;50.076;8.660;2022-07-03T04:40:42;7.33;;;3.80;;
3777;SDS011;1904;50.076;8.660;2022-07-03T04:43:08;3.77;;;3.47;;
3777;SDS011;1904;50.076;8.660;2022-07-03T04:45:44;5.13;;;3.53;;
3777;SDS011;1904;50.076;8.660;2022-07-03T04:48:20;3.50;;;3.20;;
3777;SDS011;1904;50.076;8.660;2022-07-03T04:50:46;5.50;;;3.97;;
3777;SDS011;1904;50.076;8.660;2022-07-03T04:53:20;4.50;;;3.87;;
3777;SDS011;1904;50.076;8.660;2022-07-03T04:55:50;3.97;;;3.67;;
3777;SDS011;1904;50.076;8.660;2022-07-03T04:58:20;5.50;;;3.60;;
3777;SDS011;1904;50.076;8.660;2022-07-03T05:00:50;5.07;;;3.60;;
3777;SDS011;1904;50.076;8.660;2022-07-03T05:09:26;5.40;;;4.53;;
3777;SDS011;1904;50.076;8.660;2022-07-03T05:11:56;4.60;;;3.63;;
3777;SDS011;1904;50.076;8.660;2022-07-03T05:17:20;4.60;;;3.37;;
3777;SDS011;1904;50.076;8.660;2022-07-03T05:19:50;3.20;;;3.00;;
3777;SDS011;1904;50.076;8.660;2022-07-03T05:22:44;3.80;;;3.43;;
3777;SDS011;1904;50.076;8.660;2022-07-03T05:25:14;3.77;;;3.47;;
3777;SDS011;1904;50.076;8.660;2022-07-03T05:30:38;3.87;;;3.47;;
3777;SDS011;1904;50.076;8.660;2022-07-03T05:33:14;3.60;;;3.20;;
3777;SDS011;1904;50.076;8.660;2022-07-03T05:35:56;3.17;;;2.63;;
3777;SDS011;1904;50.076;8.660;2022-07-03T05:41:44;4.30;;;3.60;;
3777;SDS011;1904;50.076;8.660;2022-07-03T05:44:14;3.73;;;3.40;;
3777;SDS011;1904;50.076;8.660;2022-07-03T05:49:44;4.60;;;3.30;;
3777;SDS011;1904;50.076;8.660;2022-07-03T05:52:10;3.80;;;3.30;;
3777;SDS011;1904;50.076;8.660;2022-07-03T05:57:57;4.33;;;3.30;;
3777;SDS011;1904;50.076;8.660;2022-07-03T06:00:32;5.23;;;3.67;;
3777;SDS011;1904;50.076;8.660;2022-07-03T06:03:08;5.33;;;3.13;;
3777;SDS011;1904;50.076;8.660;2022-07-03T06:05:34;3.57;;;3.27;;
3777;SDS011;1904;50.076;8.660;2022-07-03T06:08:02;4.57;;;3.87;;
3777;SDS011;1904;50.076;8.660;2022-07-03T06:10:38;4.40;;;3.30;;
3777;SDS011;1904;50.076;8.660;2022-07-03T06:13:05;4.50;;;3.27;;
3777;SDS011;1904;50.076;8.660;2022-07-03T06:15:30;3.60;;;3.30;;
3777;SDS011;1904;50.076;8.660;2022-07-03T06:21:09;2.83;;;2.63;;
3777;SDS011;1904;50.076;8.660;2022-07-03T06:33:20;4.60;;;2.90;;
3777;SDS011;1904;50.076;8.660;2022-07-03T06:35:50;7.03;;;3.37;;
3777;SDS011;1904;50.076;8.660;2022-07-03T06:41:56;5.60;;;3.60;;
3777;SDS011;1904;50.076;8.660;2022-07-03T06:44:26;3.60;;;3.00;;
3777;SDS011;1904;50.076;8.660;2022-07-03T06:49:56;3.40;;;2.77;;
3777;SDS011;1904;50.076;8.660;2022-07-03T07:21:05;2.60;;;2.40;;
3777;SDS011;1904;50.076;8.660;2022-07-03T07:23:31;2.73;;;2.53;;
3777;SDS011;1904;50.076;8.660;2022-07-03T07:28:56;4.10;;;2.40;;
3777;SDS011;1904;50.076;8.660;2022-07-03T07:31:38;6.60;;;2.30;;
3777;SDS011;1904;50.076;8.660;2022-07-03T07:34:14;4.53;;;2.43;;
3777;SDS011;1904;50.076;8.660;2022-07-03T07:46:13;6.30;;;2.27;;
3777;SDS011;1904;50.076;8.660;2022-07-03T07:48:44;2.80;;;2.37;;
3777;SDS011;1904;50.076;8.660;2022-07-03T07:51:20;2.40;;;2.07;;
3777;SDS011;1904;50.076;8.660;2022-07-03T07:54:02;3.20;;;2.17;;
3777;SDS011;1904;50.076;8.660;2022-07-03T07:56:44;2.47;;;2.27;;
3777;SDS011;1904;50.076;8.660;2022-07-03T08:05:50;2.07;;;1.97;;
3777;SDS011;1904;50.076;8.660;2022-07-03T08:08:20;2.90;;;2.13;;
3777;SDS011;1904;50.076;8.660;2022-07-03T08:13:50;2.20;;;2.00;;
3777;SDS011;1904;50.076;8.660;2022-07-03T08:16:16;2.10;;;2.00;;
3777;SDS011;1904;50.076;8.660;2022-07-03T08:18:50;1.93;;;1.83;;
3777;SDS011;1904;50.076;8.660;2022-07-03T08:21:32;2.83;;;2.10;;
3777;SDS011;1904;50.076;8.660;2022-07-03T08:27:26;3.90;;;1.67;;
3777;SDS011;1904;50.076;8.660;2022-07-03T08:33:21;1.80;;;1.70;;
3777;SDS011;1904;50.076;8.660;2022-07-03T08:35:56;1.80;;;1.70;;
3777;SDS011;1904;50.076;8.660;2022-07-03T08:38:28;2.30;;;1.70;;
3777;SDS011;1904;50.076;8.660;2022-07-03T08:40:58;4.57;;;1.60;;
3777;SDS011;1904;50.076;8.660;2022-07-03T08:43:26;4.00;;;1.93;;
3777;SDS011;1904;50.076;8.660;2022-07-03T08:45:58;6.90;;;1.80;;
3777;SDS011;1904;50.076;8.660;2022-07-03T08:48:27;3.17;;;1.60;;
3777;SDS011;1904;50.076;8.660;2022-07-03T08:53:52;1.40;;;1.30;;
3777;SDS011;1904;50.076;8.660;2022-07-03T08:56:20;6.87;;;1.60;;
3777;SDS011;1904;50.076;8.660;2022-07-03T08:58:47;1.80;;;1.60;;
3777;SDS011;1904;50.076;8.660;2022-07-03T09:01:20;5.53;;;1.60;;
3777;SDS011;1904;50.076;8.660;2022-07-03T09:03:46;2.00;;;1.90;;
3777;SDS011;1904;50.076;8.660;2022-07-03T09:06:26;6.13;;;1.53;;
3777;SDS011;1904;50.076;8.660;2022-07-03T09:09:02;15.80;;;1.77;;
3777;SDS011;1904;50.076;8.660;2022-07-03T09:11:29;1.70;;;1.60;;
3777;SDS011;1904;50.076;8.660;2022-07-03T09:13:54;3.33;;;1.50;;
3777;SDS011;1904;50.076;8.660;2022-07-03T09:19:10;2.50;;;1.70;;
3777;SDS011;1904;50.076;8.660;2022-07-03T09:24:26;1.77;;;1.57;;
3777;SDS011;1904;50.076;8.660;2022-07-03T09:27:18;1.60;;;1.50;;
3777;SDS011;1904;50.076;8.660;2022-07-03T09:30:01;1.50;;;1.40;;
3777;SDS011;1904;50.076;8.660;2022-07-03T09:35:26;2.03;;;1.47;;
3777;SDS011;1904;50.076;8.660;2022-07-03T09:37:57;2.03;;;1.40;;
3777;SDS011;1904;50.076;8.660;2022-07-03T09:43:29;2.20;;;1.47;;
3777;SDS011;1904;50.076;8.660;2022-07-03T09:52:27;9.90;;;1.30;;
3777;SDS011;1904;50.076;8.660;2022-07-03T10:01:26;13.50;;;1.37;;
3777;SDS011;1904;50.076;8.660;2022-07-03T10:09:27;2.90;;;1.10;;
3777;SDS011;1904;50.076;8.660;2022-07-03T10:11:57;3.40;;;1.07;;
3777;SDS011;1904;50.076;8.660;2022-07-03T10:14:27;8.87;;;1.30;;
3777;SDS011;1904;50.076;8.660;2022-07-03T10:22:56;2.30;;;1.10;;
3777;SDS011;1904;50.076;8.660;2022-07-03T10:25:26;36.90;;;2.03;;
3777;SDS011;1904;50.076;8.660;2022-07-03T10:27:52;1.23;;;0.90;;
3777;SDS011;1904;50.076;8.660;2022-07-03T10:30:19;1.40;;;1.00;;
3777;SDS011;1904;50.076;8.660;2022-07-03T10:32:47;1.03;;;0.93;;
3777;SDS011;1904;50.076;8.660;2022-07-03T10:35:15;2.40;;;0.90;;
3777;SDS011;1904;50.076;8.660;2022-07-03T10:37:53;1.87;;;1.00;;
3777;SDS011;1904;50.076;8.660;2022-07-03T10:40:31;1.77;;;1.23;;
3777;SDS011;1904;50.076;8.660;2022-07-03T10:43:40;2.10;;;1.10;;
3777;SDS011;1904;50.076;8.660;2022-07-03T10:46:32;2.30;;;1.00;;
3777;SDS011;1904;50.076;8.660;2022-07-03T10:49:03;3.23;;;1.10;;
3777;SDS011;1904;50.076;8.660;2022-07-03T11:10:39;1.53;;;0.90;;
3777;SDS011;1904;50.076;8.660;2022-07-03T11:13:26;4.20;;;1.07;;
3777;SDS011;1904;50.076;8.660;2022-07-03T11:16:02;3.03;;;0.80;;
3777;SDS011;1904;50.076;8.660;2022-07-03T11:21:50;0.87;;;0.87;;
3777;SDS011;1904;50.076;8.660;2022-07-03T11:24:43;1.83;;;0.90;;
3777;SDS011;1904;50.076;8.660;2022-07-03T11:27:20;1.90;;;0.80;;
3777;SDS011;1904;50.076;8.660;2022-07-03T11:29:48;2.73;;;0.90;;
3777;SDS011;1904;50.076;8.660;2022-07-03T11:42:00;1.90;;;0.80;;
3777;SDS011;1904;50.076;8.660;2022-07-03T11:47:48;5.50;;;0.83;;
3777;SDS011;1904;50.076;8.660;2022-07-03T11:50:14;4.10;;;0.70;;
3777;SDS011;1904;50.076;8.660;2022-07-03T11:52:40;3.80;;;1.00;;
3777;SDS011;1904;50.076;8.660;2022-07-03T11:55:06;3.43;;;0.87;;
3777;SDS011;1904;50.076;8.660;2022-07-03T11:57:32;1.33;;;0.80;;
3777;SDS011;1904;50.076;8.660;2022-07-03T12:00:04;1.43;;;0.80;;
3777;SDS011;1904;50.076;8.660;2022-07-03T12:02:31;3.23;;;0.90;;
3777;SDS011;1904;50.076;8.660;2022-07-03T12:05:12;2.80;;;0.70;;
3777;SDS011;1904;50.076;8.660;2022-07-03T12:17:45;4.23;;;0.87;;
3777;SDS011;1904;50.076;8.660;2022-07-03T12:20:14;1.00;;;0.90;;
3777;SDS011;1904;50.076;8.660;2022-07-03T12:22:50;49.63;;;1.93;;
3777;SDS011;1904;50.076;8.660;2022-07-03T12:25:29;1.10;;;0.60;;
3777;SDS011;1904;50.076;8.660;2022-07-03T12:27:56;1.30;;;0.80;;
3777;SDS011;1904;50.076;8.660;2022-07-03T12:33:16;2.13;;;1.40;;
3777;SDS011;1904;50.076;8.660;2022-07-03T12:36:17;3.00;;;1.90;;
3777;SDS011;1904;50.076;8.660;2022-07-03T12:38:36;20.57;;;10.40;;
3777;SDS011;1904;50.076;8.660;2022-07-03T12:44:04;4.40;;;0.80;;
3777;SDS011;1904;50.076;8.660;2022-07-03T12:49:44;2.50;;;0.80;;
3777;SDS011;1904;50.076;8.660;2022-07-03T13:04:42;2.70;;;1.70;;
3777;SDS011;1904;50.076;8.660;2022-07-03T13:07:30;0.87;;;0.87;;
3777;SDS011;1904;50.076;8.660;2022-07-03T13:13:08;0.80;;;0.80;;
3777;SDS011;1904;50.076;8.660;2022-07-03T13:22:07;1.47;;;1.00;;
3777;SDS011;1904;50.076;8.660;2022-07-03T13:33:21;1.20;;;0.80;;
3777;SDS011;1904;50.076;8.660;2022-07-03T13:36:02;6.30;;;0.77;;
3777;SDS011;1904;50.076;8.660;2022-07-03T13:38:28;1.50;;;1.10;;
3777;SDS011;1904;50.076;8.660;2022-07-03T13:40:54;2.40;;;0.90;;
3777;SDS011;1904;50.076;8.660;2022-07-03T13:43:20;0.80;;;0.80;;
3777;SDS011;1904;50.076;8.660;2022-07-03T13:45:45;1.93;;;0.70;;
3777;SDS011;1904;50.076;8.660;2022-07-03T13:48:11;1.00;;;0.90;;
3777;SDS011;1904;50.076;8.660;2022-07-03T13:50:39;2.33;;;0.80;;
3777;SDS011;1904;50.076;8.660;2022-07-03T13:53:08;2.97;;;1.00;;
3777;SDS011;1904;50.076;8.660;2022-07-03T13:55:34;2.90;;;0.80;;
3777;SDS011;1904;50.076;8.660;2022-07-03T13:58:00;1.33;;;0.80;;
3777;SDS011;1904;50.076;8.660;2022-07-03T14:00:30;1.13;;;0.73;;
3777;SDS011;1904;50.076;8.660;2022-07-03T14:02:56;8.43;;;0.80;;
3777;SDS011;1904;50.076;8.660;2022-07-03T14:05:22;1.40;;;0.73;;
3777;SDS011;1904;50.076;8.660;2022-07-03T14:07:50;0.73;;;0.73;;
3777;SDS011;1904;50.076;8.660;2022-07-03T14:10:16;2.60;;;0.80;;
3777;SDS011;1904;50.076;8.660;2022-07-03T14:12:44;1.70;;;0.73;;
3777;SDS011;1904;50.076;8.660;2022-07-03T14:15:14;2.30;;;0.80;;
3777;SDS011;1904;50.076;8.660;2022-07-03T14:17:40;3.57;;;0.80;;
3777;SDS011;1904;50.076;8.660;2022-07-03T14:20:08;0.93;;;0.90;;
3777;SDS011;1904;50.076;8.660;2022-07-03T14:25:38;2.77;;;1.10;;
3777;SDS011;1904;50.076;8.660;2022-07-03T14:28:08;0.70;;;0.70;;
3777;SDS011;1904;50.076;8.660;2022-07-03T14:34:14;0.90;;;0.80;;
3777;SDS011;1904;50.076;8.660;2022-07-03T14:36:40;0.70;;;0.70;;
3777;SDS011;1904;50.076;8.660;2022-07-03T14:39:06;5.27;;;0.90;;
3777;SDS011;1904;50.076;8.660;2022-07-03T14:41:31;1.83;;;0.80;;
3777;SDS011;1904;50.076;8.660;2022-07-03T14:43:57;0.77;;;0.77;;
3777;SDS011;1904;50.076;8.660;2022-07-03T14:46:22;2.37;;;0.70;;
3777;SDS011;1904;50.076;8.660;2022-07-03T14:48:48;1.80;;;0.90;;
3777;SDS011;1904;50.076;8.660;2022-07-03T14:51:14;2.50;;;0.80;;
3777;SDS011;1904;50.076;8.660;2022-07-03T14:53:40;1.17;;;0.70;;
3777;SDS011;1904;50.076;8.660;2022-07-03T14:56:07;5.17;;;0.70;;
3777;SDS011;1904;50.076;8.660;2022-07-03T14:58:41;2.57;;;0.87;;
3777;SDS011;1904;50.076;8.660;2022-07-03T15:01:09;6.03;;;0.83;;
3777;SDS011;1904;50.076;8.660;2022-07-03T15:03:35;1.53;;;0.70;;
3777;SDS011;1904;50.076;8.660;2022-07-03T15:06:08;1.10;;;0.60;;
3777;SDS011;1904;50.076;8.660;2022-07-03T15:08:48;1.10;;;0.70;;
3777;SDS011;1904;50.076;8.660;2022-07-03T15:11:40;0.70;;;0.70;;
3777;SDS011;1904;50.076;8.660;2022-07-03T15:14:39;5.13;;;0.80;;
3777;SDS011;1904;50.076;8.660;2022-07-03T15:29:03;1.37;;;0.77;;
3777;SDS011;1904;50.076;8.660;2022-07-03T15:34:51;0.77;;;0.73;;
3777;SDS011;1904;50.076;8.660;2022-07-03T15:53:27;1.33;;;0.70;;
3777;SDS011;1904;50.076;8.660;2022-07-03T15:56:03;3.30;;;0.70;;
3777;SDS011;1904;50.076;8.660;2022-07-03T16:01:53;1.33;;;0.60;;
3777;SDS011;1904;50.076;8.660;2022-07-03T16:24:20;1.93;;;0.70;;
3777;SDS011;1904;50.076;8.660;2022-07-03T16:26:48;1.17;;;0.73;;
3777;SDS011;1904;50.076;8.660;2022-07-03T16:29:17;4.60;;;0.90;;
3777;SDS011;1904;50.076;8.660;2022-07-03T16:31:43;1.00;;;0.73;;
3777;SDS011;1904;50.076;8.660;2022-07-03T16:37:24;5.83;;;0.80;;
3777;SDS011;1904;50.076;8.660;2022-07-03T16:43:20;1.73;;;0.70;;
3777;SDS011;1904;50.076;8.660;2022-07-03T16:49:09;2.10;;;0.70;;
3777;SDS011;1904;50.076;8.660;2022-07-03T16:54:38;2.60;;;0.70;;
3777;SDS011;1904;50.076;8.660;2022-07-03T16:57:08;0.70;;;0.70;;
3777;SDS011;1904;50.076;8.660;2022-07-03T16:59:50;1.03;;;0.60;;
3777;SDS011;1904;50.076;8.660;2022-07-03T17:08:08;1.80;;;0.63;;
3777;SDS011;1904;50.076;8.660;2022-07-03T17:10:38;1.30;;;0.77;;
3777;SDS011;1904;50.076;8.660;2022-07-03T17:13:05;1.63;;;0.60;;
3777;SDS011;1904;50.076;8.660;2022-07-03T17:15:30;0.83;;;0.60;;
3777;SDS011;1904;50.076;8.660;2022-07-03T17:18:04;0.60;;;0.60;;
3777;SDS011;1904;50.076;8.660;2022-07-03T17:20:45;5.77;;;0.90;;
3777;SDS011;1904;50.076;8.660;2022-07-03T17:29:11;4.67;;;0.73;;
3777;SDS011;1904;50.076;8.660;2022-07-03T17:32:02;4.30;;;0.97;;
3777;SDS011;1904;50.076;8.660;2022-07-03T17:34:38;1.57;;;0.70;;
3777;SDS011;1904;50.076;8.660;2022-07-03T17:37:06;0.50;;;0.50;;
3777;SDS011;1904;50.076;8.660;2022-07-03T17:39:32;0.60;;;0.50;;
3777;SDS011;1904;50.076;8.660;2022-07-03T17:42:02;4.10;;;0.70;;
3777;SDS011;1904;50.076;8.660;2022-07-03T17:44:29;0.97;;;0.60;;
3777;SDS011;1904;50.076;8.660;2022-07-03T17:46:58;1.97;;;0.53;;
3777;SDS011;1904;50.076;8.660;2022-07-03T17:49:27;1.00;;;0.90;;
3777;SDS011;1904;50.076;8.660;2022-07-03T17:51:56;2.60;;;0.60;;
3777;SDS011;1904;50.076;8.660;2022-07-03T17:54:24;4.83;;;0.60;;
3777;SDS011;1904;50.076;8.660;2022-07-03T17:56:51;0.70;;;0.70;;
3777;SDS011;1904;50.076;8.660;2022-07-03T18:02:14;1.80;;;0.70;;
3777;SDS011;1904;50.076;8.660;2022-07-03T18:11:03;2.80;;;0.70;;
3777;SDS011;1904;50.076;8.660;2022-07-03T18:26:04;2.23;;;0.90;;
3777;SDS011;1904;50.076;8.660;2022-07-03T18:31:36;9.77;;;0.90;;
3777;SDS011;1904;50.076;8.660;2022-07-03T18:34:16;1.73;;;0.87;;
3777;SDS011;1904;50.076;8.660;2022-07-03T18:39:39;0.80;;;0.80;;
3777;SDS011;1904;50.076;8.660;2022-07-03T18:42:20;5.67;;;0.90;;
3777;SDS011;1904;50.076;8.660;2022-07-03T18:44:57;1.80;;;0.90;;
3777;SDS011;1904;50.076;8.660;2022-07-03T18:54:13;10.03;;;1.00;;
3777;SDS011;1904;50.076;8.660;2022-07-03T19:00:13;4.53;;;1.43;;
3777;SDS011;1904;50.076;8.660;2022-07-03T19:05:35;3.07;;;1.10;;
3777;SDS011;1904;50.076;8.660;2022-07-03T19:11:34;2.27;;;1.30;;
3777;SDS011;1904;50.076;8.660;2022-07-03T19:14:11;2.10;;;1.50;;
3777;SDS011;1904;50.076;8.660;2022-07-03T19:16:38;2.43;;;1.30;;
3777;SDS011;1904;50.076;8.660;2022-07-03T19:22:31;3.17;;;1.30;;
3777;SDS011;1904;50.076;8.660;2022-07-03T19:30:56;2.80;;;1.37;;
3777;SDS011;1904;50.076;8.660;2022-07-03T19:33:22;3.83;;;1.83;;
3777;SDS011;1904;50.076;8.660;2022-07-03T19:42:32;2.30;;;1.30;;
3777;SDS011;1904;50.076;8.660;2022-07-03T19:48:10;8.50;;;1.50;;
3777;SDS011;1904;50.076;8.660;2022-07-03T19:56:44;8.07;;;1.73;;
3777;SDS011;1904;50.076;8.660;2022-07-03T19:59:20;8.87;;;1.93;;
3777;SDS011;1904;50.076;8.660;2022-07-03T20:01:46;2.60;;;1.70;;
3777;SDS011;1904;50.076;8.660;2022-07-03T20:04:15;2.27;;;1.80;;
3777;SDS011;1904;50.076;8.660;2022-07-03T20:06:40;2.13;;;1.90;;
3777;SDS011;1904;50.076;8.660;2022-07-03T20:09:06;1.70;;;1.60;;
3777;SDS011;1904;50.076;8.660;2022-07-03T20:11:32;2.93;;;1.70;;
3777;SDS011;1904;50.076;8.660;2022-07-03T20:14:14;2.10;;;2.00;;
3777;SDS011;1904;50.076;8.660;2022-07-03T20:19:40;3.30;;;1.90;;
3777;SDS011;1904;50.076;8.660;2022-07-03T20:22:14;4.90;;;2.00;;
3777;SDS011;1904;50.076;8.660;2022-07-03T20:28:03;1.53;;;1.43;;
3777;SDS011;1904;50.076;8.660;2022-07-03T20:30:29;3.67;;;1.43;;
3777;SDS011;1904;50.076;8.660;2022-07-03T20:32:57;6.53;;;1.90;;
3777;SDS011;1904;50.076;8.660;2022-07-03T20:35:25;4.27;;;1.60;;
3777;SDS011;1904;50.076;8.660;2022-07-03T20:37:52;6.70;;;1.50;;
3777;SDS011;1904;50.076;8.660;2022-07-03T20:40:21;3.53;;;2.17;;
3777;SDS011;1904;50.076;8.660;2022-07-03T20:49:31;2.20;;;1.57;;
3777;SDS011;1904;50.076;8.660;2022-07-03T20:55:14;2.07;;;1.67;;
3777;SDS011;1904;50.076;8.660;2022-07-03T21:00:32;3.90;;;1.63;;
3777;SDS011;1904;50.076;8.660;2022-07-03T21:03:08;3.10;;;1.60;;
3777;SDS011;1904;50.076;8.660;2022-07-03T21:05:34;6.40;;;1.70;;
3777;SDS011;1904;50.076;8.660;2022-07-03T21:11:22;8.37;;;1.70;;
3777;SDS011;1904;50.076;8.660;2022-07-03T21:16:56;6.47;;;1.87;;
3777;SDS011;1904;50.076;8.660;2022-07-03T21:28:25;3.40;;;1.50;;
3777;SDS011;1904;50.076;8.660;2022-07-03T21:31:02;3.60;;;1.73;;
3777;SDS011;1904;50.076;8.660;2022-07-03T21:33:32;1.63;;;1.50;;
3777;SDS011;1904;50.076;8.660;2022-07-03T21:35:58;1.63;;;1.53;;
3777;SDS011;1904;50.076;8.660;2022-07-03T21:38:26;4.00;;;1.73;;
3777;SDS011;1904;50.076;8.660;2022-07-03T21:40:52;5.73;;;1.60;;
3777;SDS011;1904;50.076;8.660;2022-07-03T21:46:44;4.20;;;1.50;;
3777;SDS011;1904;50.076;8.660;2022-07-03T21:52:21;1.60;;;1.50;;
3777;SDS011;1904;50.076;8.660;2022-07-03T22:08:01;2.93;;;1.83;;
3777;SDS011;1904;50.076;8.660;2022-07-03T22:10:33;6.37;;;1.63;;
3777;SDS011;1904;50.076;8.660;2022-07-03T22:22:42;2.20;;;1.67;;
3777;SDS011;1904;50.076;8.660;2022-07-03T22:25:20;4.00;;;1.90;;
3777;SDS011;1904;50.076;8.660;2022-07-03T22:27:51;1.57;;;1.30;;
3777;SDS011;1904;50.076;8.660;2022-07-03T22:40:08;10.73;;;3.20;;
3777;SDS011;1904;50.076;8.660;2022-07-03T22:42:48;5.80;;;1.70;;
3777;SDS011;1904;50.076;8.660;2022-07-03T22:45:26;7.03;;;1.70;;
3777;SDS011;1904;50.076;8.660;2022-07-03T22:47:57;2.90;;;1.50;;
3777;SDS011;1904;50.076;8.660;2022-07-03T22:50:22;2.40;;;1.80;;
3777;SDS011;1904;50.076;8.660;2022-07-03T22:53:03;4.83;;;1.60;;
3777;SDS011;1904;50.076;8.660;2022-07-03T22:55:32;2.20;;;1.57;;
3777;SDS011;1904;50.076;8.660;2022-07-03T22:57:58;7.90;;;1.60;;
3777;SDS011;1904;50.076;8.660;2022-07-03T23:00:24;4.30;;;1.20;;
3777;SDS011;1904;50.076;8.660;2022-07-03T23:02:50;4.43;;;1.50;;
3777;SDS011;1904;50.076;8.660;2022-07-03T23:05:16;4.97;;;1.73;;
3777;SDS011;1904;50.076;8.660;2022-07-03T23:07:42;3.67;;;1.50;;
3777;SDS011;1904;50.076;8.660;2022-07-03T23:10:08;1.83;;;1.60;;
3777;SDS011;1904;50.076;8.660;2022-07-03T23:12:34;1.63;;;1.53;;
3777;SDS011;1904;50.076;8.660;2022-07-03T23:15:02;1.57;;;1.47;;
3777;SDS011;1904;50.076;8.660;2022-07-03T23:17:29;3.13;;;1.80;;
3777;SDS011;1904;50.076;8.660;2022-07-03T23:19:57;1.87;;;1.40;;
3777;SDS011;1904;50.076;8.660;2022-07-03T23:22:23;2.80;;;1.30;;
3777;SDS011;1904;50.076;8.660;2022-07-03T23:24:49;3.87;;;1.37;;
3777;SDS011;1904;50.076;8.660;2022-07-03T23:27:15;1.90;;;1.20;;
3777;SDS011;1904;50.076;8.660;2022-07-03T23:29:41;1.40;;;1.30;;
3777;SDS011;1904;50.076;8.660;2022-07-03T23:32:09;3.13;;;1.40;;
3777;SDS011;1904;50.076;8.660;2022-07-03T23:34:34;6.57;;;2.10;;
3777;SDS011;1904;50.076;8.660;2022-07-03T23:37:00;3.73;;;1.43;;
3777;SDS011;1904;50.076;8.660;2022-07-03T23:39:26;4.70;;;1.50;;
3777;SDS011;1904;50.076;8.660;2022-07-03T23:41:52;1.40;;;1.30;;
3777;SDS011;1904;50.076;8.660;2022-07-03T23:44:18;1.40;;;1.30;;
3777;SDS011;1904;50.076;8.660;2022-07-03T23:46:44;2.93;;;1.40;;
3777;SDS011;1904;50.076;8.660;2022-07-03T23:49:10;11.73;;;1.33;;
3777;SDS011;1904;50.076;8.660;2022-07-03T23:52:03;4.20;;;1.50;;
3777;SDS011;1904;50.076;8.660;2022-07-03T23:54:29;3.07;;;1.17;;
3777;SDS011;1904;50.076;8.660;2022-07-03T23:56:56;5.10;;;1.87;;
3777;SDS011;1904;50.076;8.660;2022-07-03T23:59:22;1.20;;;1.10;;
